sensor_id;sensor_type;location;lat;lon;timestamp;temperature;humidity
19941;DHT22;10132;50.864;5.176;2024-03-06T00:00:34;7.60;99.90
19941;DHT22;10132;50.864;5.176;2024-03-06T00:02:36;7.60;99.90
19941;DHT22;10132;50.864;5.176;2024-03-06T00:04:38;7.50;99.90
19941;DHT22;10132;50.864;5.176;2024-03-06T00:06:39;7.30;99.90
19941;DHT22;10132;50.864;5.176;2024-03-06T00:08:41;7.20;99.90
19941;DHT22;10132;50.864;5.176;2024-03-06T00:10:44;7.10;99.90
19941;DHT22;10132;50.864;5.176;2024-03-06T00:12:47;7.10;99.90
19941;DHT22;10132;50.864;5.176;2024-03-06T00:14:49;7.10;99.90
19941;DHT22;10132;50.864;5.176;2024-03-06T00:16:51;7.10;99.90
19941;DHT22;10132;50.864;5.176;2024-03-06T00:18:53;7.10;99.90
19941;DHT22;10132;50.864;5.176;2024-03-06T00:20:54;7.10;99.90
19941;DHT22;10132;50.864;5.176;2024-03-06T00:22:55;7.10;99.90
19941;DHT22;10132;50.864;5.176;2024-03-06T00:24:59;7.20;99.90
19941;DHT22;10132;50.864;5.176;2024-03-06T00:27:03;7.10;99.90
19941;DHT22;10132;50.864;5.176;2024-03-06T00:29:06;7.00;99.90
19941;DHT22;10132;50.864;5.176;2024-03-06T00:31:07;6.90;99.90
19941;DHT22;10132;50.864;5.176;2024-03-06T00:33:09;6.90;99.90
19941;DHT22;10132;50.864;5.176;2024-03-06T00:35:11;7.00;99.90
19941;DHT22;10132;50.864;5.176;2024-03-06T00:37:12;6.90;99.90
19941;DHT22;10132;50.864;5.176;2024-03-06T00:39:14;6.70;99.90
19941;DHT22;10132;50.864;5.176;2024-03-06T00:41:16;6.70;99.90
19941;DHT22;10132;50.864;5.176;2024-03-06T00:43:19;6.50;99.90
19941;DHT22;10132;50.864;5.176;2024-03-06T00:45:21;6.40;99.90
19941;DHT22;10132;50.864;5.176;2024-03-06T00:47:23;6.20;99.90
19941;DHT22;10132;50.864;5.176;2024-03-06T00:49:26;5.90;99.90
19941;DHT22;10132;50.864;5.176;2024-03-06T00:51:28;5.70;99.90
19941;DHT22;10132;50.864;5.176;2024-03-06T00:53:30;5.50;99.90
19941;DHT22;10132;50.864;5.176;2024-03-06T00:55:32;5.40;99.90
19941;DHT22;10132;50.864;5.176;2024-03-06T00:57:34;5.40;99.90
19941;DHT22;10132;50.864;5.176;2024-03-06T00:59:37;5.30;99.90
19941;DHT22;10132;50.864;5.176;2024-03-06T01:01:39;5.20;99.90
19941;DHT22;10132;50.864;5.176;2024-03-06T01:03:41;5.10;99.90
19941;DHT22;10132;50.864;5.176;2024-03-06T01:05:43;5.10;99.90
19941;DHT22;10132;50.864;5.176;2024-03-06T01:07:44;5.20;99.90
19941;DHT22;10132;50.864;5.176;2024-03-06T01:09:46;5.20;99.90
19941;DHT22;10132;50.864;5.176;2024-03-06T01:11:48;5.30;99.90
19941;DHT22;10132;50.864;5.176;2024-03-06T01:13:50;5.30;99.90
19941;DHT22;10132;50.864;5.176;2024-03-06T01:15:54;5.30;99.90
19941;DHT22;10132;50.864;5.176;2024-03-06T01:17:55;5.30;99.90
19941;DHT22;10132;50.864;5.176;2024-03-06T01:19:58;5.20;99.90
19941;DHT22;10132;50.864;5.176;2024-03-06T01:22:00;5.10;99.90
19941;DHT22;10132;50.864;5.176;2024-03-06T01:24:02;5.00;99.90
19941;DHT22;10132;50.864;5.176;2024-03-06T01:26:05;5.10;99.90
19941;DHT22;10132;50.864;5.176;2024-03-06T01:28:07;5.10;99.90
19941;DHT22;10132;50.864;5.176;2024-03-06T01:30:09;5.10;99.90
19941;DHT22;10132;50.864;5.176;2024-03-06T01:32:13;5.10;99.90
19941;DHT22;10132;50.864;5.176;2024-03-06T01:34:15;4.80;99.90
19941;DHT22;10132;50.864;5.176;2024-03-06T01:36:17;4.60;99.90
19941;DHT22;10132;50.864;5.176;2024-03-06T01:38:18;4.50;99.90
19941;DHT22;10132;50.864;5.176;2024-03-06T01:40:20;4.60;99.90
19941;DHT22;10132;50.864;5.176;2024-03-06T01:42:21;4.70;99.90
19941;DHT22;10132;50.864;5.176;2024-03-06T01:44:23;4.70;99.90
19941;DHT22;10132;50.864;5.176;2024-03-06T01:46:25;4.60;99.90
19941;DHT22;10132;50.864;5.176;2024-03-06T01:48:29;4.70;99.90
19941;DHT22;10132;50.864;5.176;2024-03-06T01:50:31;4.80;99.90
19941;DHT22;10132;50.864;5.176;2024-03-06T01:52:33;4.80;99.90
19941;DHT22;10132;50.864;5.176;2024-03-06T01:54:36;4.90;99.90
19941;DHT22;10132;50.864;5.176;2024-03-06T01:56:39;5.00;99.90
19941;DHT22;10132;50.864;5.176;2024-03-06T01:58:46;5.10;99.90
19941;DHT22;10132;50.864;5.176;2024-03-06T02:00:47;5.30;99.90
19941;DHT22;10132;50.864;5.176;2024-03-06T02:02:50;5.40;99.90
19941;DHT22;10132;50.864;5.176;2024-03-06T02:04:54;5.40;99.90
19941;DHT22;10132;50.864;5.176;2024-03-06T02:06:57;5.40;99.90
19941;DHT22;10132;50.864;5.176;2024-03-06T02:08:59;5.50;99.90
19941;DHT22;10132;50.864;5.176;2024-03-06T02:11:01;5.50;99.90
19941;DHT22;10132;50.864;5.176;2024-03-06T02:13:04;5.50;99.90
19941;DHT22;10132;50.864;5.176;2024-03-06T02:15:07;5.50;99.90
19941;DHT22;10132;50.864;5.176;2024-03-06T02:17:13;5.40;99.90
19941;DHT22;10132;50.864;5.176;2024-03-06T02:19:14;5.30;99.90
19941;DHT22;10132;50.864;5.176;2024-03-06T02:21:18;5.30;99.90
19941;DHT22;10132;50.864;5.176;2024-03-06T02:23:19;5.20;99.90
19941;DHT22;10132;50.864;5.176;2024-03-06T02:25:22;5.00;99.90
19941;DHT22;10132;50.864;5.176;2024-03-06T02:27:24;5.00;99.90
19941;DHT22;10132;50.864;5.176;2024-03-06T02:29:25;5.00;99.90
19941;DHT22;10132;50.864;5.176;2024-03-06T02:31:27;5.10;99.90
19941;DHT22;10132;50.864;5.176;2024-03-06T02:33:29;5.10;99.90
19941;DHT22;10132;50.864;5.176;2024-03-06T02:35:31;5.10;99.90
19941;DHT22;10132;50.864;5.176;2024-03-06T02:37:33;5.10;99.90
19941;DHT22;10132;50.864;5.176;2024-03-06T02:39:35;5.20;99.90
19941;DHT22;10132;50.864;5.176;2024-03-06T02:41:37;5.10;99.90
19941;DHT22;10132;50.864;5.176;2024-03-06T02:43:39;5.00;99.90
19941;DHT22;10132;50.864;5.176;2024-03-06T02:45:40;4.70;99.90
19941;DHT22;10132;50.864;5.176;2024-03-06T02:47:42;4.80;99.90
19941;DHT22;10132;50.864;5.176;2024-03-06T02:49:44;4.80;99.90
19941;DHT22;10132;50.864;5.176;2024-03-06T02:51:46;4.90;99.90
19941;DHT22;10132;50.864;5.176;2024-03-06T02:53:49;4.70;99.90
19941;DHT22;10132;50.864;5.176;2024-03-06T02:55:53;4.50;99.90
19941;DHT22;10132;50.864;5.176;2024-03-06T02:57:55;4.30;99.90
19941;DHT22;10132;50.864;5.176;2024-03-06T02:59:57;4.10;99.90
19941;DHT22;10132;50.864;5.176;2024-03-06T03:01:59;4.00;99.90
19941;DHT22;10132;50.864;5.176;2024-03-06T03:04:02;4.00;99.90
19941;DHT22;10132;50.864;5.176;2024-03-06T03:06:04;3.90;99.90
19941;DHT22;10132;50.864;5.176;2024-03-06T03:08:06;3.90;99.90
19941;DHT22;10132;50.864;5.176;2024-03-06T03:10:10;3.90;99.90
19941;DHT22;10132;50.864;5.176;2024-03-06T03:12:13;3.90;99.90
19941;DHT22;10132;50.864;5.176;2024-03-06T03:14:15;4.00;99.90
19941;DHT22;10132;50.864;5.176;2024-03-06T03:16:16;4.10;99.90
19941;DHT22;10132;50.864;5.176;2024-03-06T03:18:19;4.10;99.90
19941;DHT22;10132;50.864;5.176;2024-03-06T03:20:21;4.10;99.90
19941;DHT22;10132;50.864;5.176;2024-03-06T03:22:23;4.00;99.90
19941;DHT22;10132;50.864;5.176;2024-03-06T03:24:25;4.00;99.90
19941;DHT22;10132;50.864;5.176;2024-03-06T03:26:28;4.10;99.90
19941;DHT22;10132;50.864;5.176;2024-03-06T03:28:30;4.00;99.90
19941;DHT22;10132;50.864;5.176;2024-03-06T03:30:31;3.90;99.90
19941;DHT22;10132;50.864;5.176;2024-03-06T03:32:33;3.80;99.90
19941;DHT22;10132;50.864;5.176;2024-03-06T03:34:35;3.80;99.90
19941;DHT22;10132;50.864;5.176;2024-03-06T03:36:40;3.90;99.90
19941;DHT22;10132;50.864;5.176;2024-03-06T03:38:41;3.80;99.90
19941;DHT22;10132;50.864;5.176;2024-03-06T03:40:43;3.80;99.90
19941;DHT22;10132;50.864;5.176;2024-03-06T03:42:47;3.50;99.90
19941;DHT22;10132;50.864;5.176;2024-03-06T03:44:49;3.30;99.90
19941;DHT22;10132;50.864;5.176;2024-03-06T03:46:51;3.20;99.90
19941;DHT22;10132;50.864;5.176;2024-03-06T03:48:53;3.10;99.90
19941;DHT22;10132;50.864;5.176;2024-03-06T03:50:55;3.10;99.90
19941;DHT22;10132;50.864;5.176;2024-03-06T03:52:57;3.10;99.90
19941;DHT22;10132;50.864;5.176;2024-03-06T03:55:01;3.10;99.90
19941;DHT22;10132;50.864;5.176;2024-03-06T03:57:04;3.20;99.90
19941;DHT22;10132;50.864;5.176;2024-03-06T03:59:08;3.40;99.90
19941;DHT22;10132;50.864;5.176;2024-03-06T04:01:11;3.40;99.90
19941;DHT22;10132;50.864;5.176;2024-03-06T04:03:12;3.20;99.90
19941;DHT22;10132;50.864;5.176;2024-03-06T04:05:14;3.10;99.90
19941;DHT22;10132;50.864;5.176;2024-03-06T04:07:17;3.00;99.90
19941;DHT22;10132;50.864;5.176;2024-03-06T04:09:19;2.80;99.90
19941;DHT22;10132;50.864;5.176;2024-03-06T04:11:21;2.80;99.90
19941;DHT22;10132;50.864;5.176;2024-03-06T04:13:23;2.70;99.90
19941;DHT22;10132;50.864;5.176;2024-03-06T04:15:27;2.60;99.90
19941;DHT22;10132;50.864;5.176;2024-03-06T04:17:29;2.60;99.90
19941;DHT22;10132;50.864;5.176;2024-03-06T04:19:31;2.60;99.90
19941;DHT22;10132;50.864;5.176;2024-03-06T04:21:33;2.70;99.90
19941;DHT22;10132;50.864;5.176;2024-03-06T04:23:35;2.80;99.90
19941;DHT22;10132;50.864;5.176;2024-03-06T04:25:37;2.80;99.90
19941;DHT22;10132;50.864;5.176;2024-03-06T04:27:40;2.90;99.90
19941;DHT22;10132;50.864;5.176;2024-03-06T04:29:42;2.80;99.90
19941;DHT22;10132;50.864;5.176;2024-03-06T04:31:45;2.70;99.90
19941;DHT22;10132;50.864;5.176;2024-03-06T04:33:47;2.80;99.90
19941;DHT22;10132;50.864;5.176;2024-03-06T04:35:49;2.60;99.90
19941;DHT22;10132;50.864;5.176;2024-03-06T04:37:51;2.50;99.90
19941;DHT22;10132;50.864;5.176;2024-03-06T04:39:53;2.50;99.90
19941;DHT22;10132;50.864;5.176;2024-03-06T04:41:54;2.40;99.90
19941;DHT22;10132;50.864;5.176;2024-03-06T04:43:56;2.40;99.90
19941;DHT22;10132;50.864;5.176;2024-03-06T04:46:00;2.40;99.90
19941;DHT22;10132;50.864;5.176;2024-03-06T04:48:04;2.60;99.90
19941;DHT22;10132;50.864;5.176;2024-03-06T04:50:09;2.80;99.90
19941;DHT22;10132;50.864;5.176;2024-03-06T04:52:11;2.70;99.90
19941;DHT22;10132;50.864;5.176;2024-03-06T04:54:13;2.70;99.90
19941;DHT22;10132;50.864;5.176;2024-03-06T04:56:15;2.50;99.90
19941;DHT22;10132;50.864;5.176;2024-03-06T04:58:19;2.50;99.90
19941;DHT22;10132;50.864;5.176;2024-03-06T05:00:20;2.70;99.90
19941;DHT22;10132;50.864;5.176;2024-03-06T05:02:23;2.80;99.90
19941;DHT22;10132;50.864;5.176;2024-03-06T05:04:27;3.00;99.90
19941;DHT22;10132;50.864;5.176;2024-03-06T05:06:29;3.10;99.90
19941;DHT22;10132;50.864;5.176;2024-03-06T05:08:31;3.10;99.90
19941;DHT22;10132;50.864;5.176;2024-03-06T05:10:34;3.20;99.90
19941;DHT22;10132;50.864;5.176;2024-03-06T05:12:36;3.20;99.90
19941;DHT22;10132;50.864;5.176;2024-03-06T05:14:38;3.20;99.90
19941;DHT22;10132;50.864;5.176;2024-03-06T05:16:39;3.20;99.90
19941;DHT22;10132;50.864;5.176;2024-03-06T05:18:40;3.20;99.90
19941;DHT22;10132;50.864;5.176;2024-03-06T05:20:44;3.10;99.90
19941;DHT22;10132;50.864;5.176;2024-03-06T05:22:46;3.00;99.90
19941;DHT22;10132;50.864;5.176;2024-03-06T05:24:48;3.00;99.90
19941;DHT22;10132;50.864;5.176;2024-03-06T05:26:50;3.00;99.90
19941;DHT22;10132;50.864;5.176;2024-03-06T05:28:52;3.00;99.90
19941;DHT22;10132;50.864;5.176;2024-03-06T05:30:53;2.80;99.90
19941;DHT22;10132;50.864;5.176;2024-03-06T05:32:55;2.60;99.90
19941;DHT22;10132;50.864;5.176;2024-03-06T05:34:57;2.60;99.90
19941;DHT22;10132;50.864;5.176;2024-03-06T05:37:00;2.60;99.90
19941;DHT22;10132;50.864;5.176;2024-03-06T05:39:04;2.50;99.90
19941;DHT22;10132;50.864;5.176;2024-03-06T05:41:07;2.50;99.90
19941;DHT22;10132;50.864;5.176;2024-03-06T05:43:10;2.40;99.90
19941;DHT22;10132;50.864;5.176;2024-03-06T05:45:12;2.40;99.90
19941;DHT22;10132;50.864;5.176;2024-03-06T05:47:14;2.40;99.90
19941;DHT22;10132;50.864;5.176;2024-03-06T05:49:16;2.50;99.90
19941;DHT22;10132;50.864;5.176;2024-03-06T05:51:17;2.40;99.90
19941;DHT22;10132;50.864;5.176;2024-03-06T05:53:20;2.50;99.90
19941;DHT22;10132;50.864;5.176;2024-03-06T05:55:22;2.40;99.90
19941;DHT22;10132;50.864;5.176;2024-03-06T05:57:24;2.30;99.90
19941;DHT22;10132;50.864;5.176;2024-03-06T05:59:26;2.30;99.90
19941;DHT22;10132;50.864;5.176;2024-03-06T06:01:29;2.30;99.90
19941;DHT22;10132;50.864;5.176;2024-03-06T06:03:30;2.50;99.90
19941;DHT22;10132;50.864;5.176;2024-03-06T06:05:32;2.60;99.90
19941;DHT22;10132;50.864;5.176;2024-03-06T06:07:36;2.70;99.90
19941;DHT22;10132;50.864;5.176;2024-03-06T06:09:39;2.80;99.90
19941;DHT22;10132;50.864;5.176;2024-03-06T06:11:42;2.80;99.90
19941;DHT22;10132;50.864;5.176;2024-03-06T06:13:44;2.80;99.90
19941;DHT22;10132;50.864;5.176;2024-03-06T06:15:46;2.90;99.90
19941;DHT22;10132;50.864;5.176;2024-03-06T06:17:48;2.80;99.90
19941;DHT22;10132;50.864;5.176;2024-03-06T06:19:49;2.90;99.90
19941;DHT22;10132;50.864;5.176;2024-03-06T06:21:52;2.90;99.90
19941;DHT22;10132;50.864;5.176;2024-03-06T06:23:54;2.80;99.90
19941;DHT22;10132;50.864;5.176;2024-03-06T06:25:56;2.80;99.90
19941;DHT22;10132;50.864;5.176;2024-03-06T06:27:58;2.80;99.90
19941;DHT22;10132;50.864;5.176;2024-03-06T06:29:59;2.90;99.90
19941;DHT22;10132;50.864;5.176;2024-03-06T06:32:01;2.90;99.90
19941;DHT22;10132;50.864;5.176;2024-03-06T06:34:04;2.90;99.90
19941;DHT22;10132;50.864;5.176;2024-03-06T06:36:07;2.90;99.90
19941;DHT22;10132;50.864;5.176;2024-03-06T06:38:09;2.90;99.90
19941;DHT22;10132;50.864;5.176;2024-03-06T06:40:12;2.90;99.90
19941;DHT22;10132;50.864;5.176;2024-03-06T06:42:15;2.90;99.90
19941;DHT22;10132;50.864;5.176;2024-03-06T06:44:17;2.90;99.90
19941;DHT22;10132;50.864;5.176;2024-03-06T06:46:19;2.90;99.90
19941;DHT22;10132;50.864;5.176;2024-03-06T06:48:21;3.00;99.90
19941;DHT22;10132;50.864;5.176;2024-03-06T06:50:23;3.10;99.90
19941;DHT22;10132;50.864;5.176;2024-03-06T06:52:27;3.20;99.90
19941;DHT22;10132;50.864;5.176;2024-03-06T06:54:29;3.10;99.90
19941;DHT22;10132;50.864;5.176;2024-03-06T06:56:32;3.20;99.90
19941;DHT22;10132;50.864;5.176;2024-03-06T06:58:35;3.30;99.90
19941;DHT22;10132;50.864;5.176;2024-03-06T07:00:37;3.30;99.90
19941;DHT22;10132;50.864;5.176;2024-03-06T07:02:40;3.30;99.90
19941;DHT22;10132;50.864;5.176;2024-03-06T07:04:42;3.40;99.90
19941;DHT22;10132;50.864;5.176;2024-03-06T07:06:44;3.20;99.90
19941;DHT22;10132;50.864;5.176;2024-03-06T07:08:46;3.20;99.90
19941;DHT22;10132;50.864;5.176;2024-03-06T07:10:48;3.30;99.90
19941;DHT22;10132;50.864;5.176;2024-03-06T07:12:50;3.30;99.90
19941;DHT22;10132;50.864;5.176;2024-03-06T07:14:53;3.40;99.90
19941;DHT22;10132;50.864;5.176;2024-03-06T07:16:55;3.70;99.90
19941;DHT22;10132;50.864;5.176;2024-03-06T07:18:57;3.90;99.90
19941;DHT22;10132;50.864;5.176;2024-03-06T07:21:00;3.90;99.90
19941;DHT22;10132;50.864;5.176;2024-03-06T07:23:02;4.00;99.90
19941;DHT22;10132;50.864;5.176;2024-03-06T07:25:05;4.30;99.90
19941;DHT22;10132;50.864;5.176;2024-03-06T07:27:07;4.60;99.90
19941;DHT22;10132;50.864;5.176;2024-03-06T07:29:10;5.00;99.90
19941;DHT22;10132;50.864;5.176;2024-03-06T07:31:16;5.30;99.90
19941;DHT22;10132;50.864;5.176;2024-03-06T07:33:19;5.50;99.90
19941;DHT22;10132;50.864;5.176;2024-03-06T07:35:20;5.80;99.90
19941;DHT22;10132;50.864;5.176;2024-03-06T07:37:22;6.00;99.90
19941;DHT22;10132;50.864;5.176;2024-03-06T07:39:23;6.40;99.90
19941;DHT22;10132;50.864;5.176;2024-03-06T07:41:25;6.60;99.90
19941;DHT22;10132;50.864;5.176;2024-03-06T07:43:27;6.70;99.90
19941;DHT22;10132;50.864;5.176;2024-03-06T07:45:29;7.00;99.90
19941;DHT22;10132;50.864;5.176;2024-03-06T07:47:32;7.10;99.90
19941;DHT22;10132;50.864;5.176;2024-03-06T07:49:34;7.30;99.90
19941;DHT22;10132;50.864;5.176;2024-03-06T07:51:36;7.40;99.90
19941;DHT22;10132;50.864;5.176;2024-03-06T07:53:38;7.70;99.90
19941;DHT22;10132;50.864;5.176;2024-03-06T07:55:39;7.70;99.90
19941;DHT22;10132;50.864;5.176;2024-03-06T07:57:41;7.80;99.90
19941;DHT22;10132;50.864;5.176;2024-03-06T07:59:42;7.70;99.90
19941;DHT22;10132;50.864;5.176;2024-03-06T08:01:44;7.90;99.90
19941;DHT22;10132;50.864;5.176;2024-03-06T08:03:47;8.10;99.90
19941;DHT22;10132;50.864;5.176;2024-03-06T08:05:51;8.10;99.90
19941;DHT22;10132;50.864;5.176;2024-03-06T08:07:54;8.00;99.90
19941;DHT22;10132;50.864;5.176;2024-03-06T08:09:56;8.00;99.90
19941;DHT22;10132;50.864;5.176;2024-03-06T08:11:57;8.10;99.90
19941;DHT22;10132;50.864;5.176;2024-03-06T08:14:00;8.20;99.90
19941;DHT22;10132;50.864;5.176;2024-03-06T08:16:02;8.10;99.90
19941;DHT22;10132;50.864;5.176;2024-03-06T08:18:05;8.10;99.90
19941;DHT22;10132;50.864;5.176;2024-03-06T08:20:11;8.00;99.90
19941;DHT22;10132;50.864;5.176;2024-03-06T08:22:13;8.20;99.90
19941;DHT22;10132;50.864;5.176;2024-03-06T08:24:14;8.30;99.90
19941;DHT22;10132;50.864;5.176;2024-03-06T08:26:19;8.40;99.90
19941;DHT22;10132;50.864;5.176;2024-03-06T08:28:21;8.30;99.90
19941;DHT22;10132;50.864;5.176;2024-03-06T08:30:23;8.20;99.90
19941;DHT22;10132;50.864;5.176;2024-03-06T08:32:24;8.20;99.90
19941;DHT22;10132;50.864;5.176;2024-03-06T08:34:28;8.40;99.90
19941;DHT22;10132;50.864;5.176;2024-03-06T08:36:31;8.80;99.90
19941;DHT22;10132;50.864;5.176;2024-03-06T08:38:33;9.00;99.90
19941;DHT22;10132;50.864;5.176;2024-03-06T08:40:35;9.20;99.90
19941;DHT22;10132;50.864;5.176;2024-03-06T08:42:38;9.40;99.90
19941;DHT22;10132;50.864;5.176;2024-03-06T08:44:39;9.60;99.90
19941;DHT22;10132;50.864;5.176;2024-03-06T08:46:41;9.20;99.90
19941;DHT22;10132;50.864;5.176;2024-03-06T08:48:43;9.30;99.90
19941;DHT22;10132;50.864;5.176;2024-03-06T08:50:45;9.60;99.90
19941;DHT22;10132;50.864;5.176;2024-03-06T08:52:48;10.00;99.90
19941;DHT22;10132;50.864;5.176;2024-03-06T08:54:51;10.00;99.90
19941;DHT22;10132;50.864;5.176;2024-03-06T08:56:52;9.90;99.90
19941;DHT22;10132;50.864;5.176;2024-03-06T08:58:58;10.20;99.90
19941;DHT22;10132;50.864;5.176;2024-03-06T09:01:00;10.20;99.90
19941;DHT22;10132;50.864;5.176;2024-03-06T09:03:02;10.20;99.90
19941;DHT22;10132;50.864;5.176;2024-03-06T09:05:05;10.20;99.90
19941;DHT22;10132;50.864;5.176;2024-03-06T09:07:08;10.30;99.90
19941;DHT22;10132;50.864;5.176;2024-03-06T09:09:11;10.70;99.90
19941;DHT22;10132;50.864;5.176;2024-03-06T09:11:15;11.20;99.90
19941;DHT22;10132;50.864;5.176;2024-03-06T09:13:17;11.40;99.90
19941;DHT22;10132;50.864;5.176;2024-03-06T09:15:19;11.60;99.90
19941;DHT22;10132;50.864;5.176;2024-03-06T09:17:21;11.60;99.90
19941;DHT22;10132;50.864;5.176;2024-03-06T09:19:22;12.10;99.90
19941;DHT22;10132;50.864;5.176;2024-03-06T09:21:24;12.20;99.90
19941;DHT22;10132;50.864;5.176;2024-03-06T09:23:26;12.30;99.90
19941;DHT22;10132;50.864;5.176;2024-03-06T09:25:32;12.50;99.90
19941;DHT22;10132;50.864;5.176;2024-03-06T09:27:34;12.10;99.90
19941;DHT22;10132;50.864;5.176;2024-03-06T09:29:35;12.20;99.90
19941;DHT22;10132;50.864;5.176;2024-03-06T09:31:37;12.50;99.90
19941;DHT22;10132;50.864;5.176;2024-03-06T09:33:39;12.80;99.90
19941;DHT22;10132;50.864;5.176;2024-03-06T09:35:40;12.80;99.90
19941;DHT22;10132;50.864;5.176;2024-03-06T09:37:46;12.60;99.90
19941;DHT22;10132;50.864;5.176;2024-03-06T09:39:48;12.30;99.90
19941;DHT22;10132;50.864;5.176;2024-03-06T09:41:50;12.00;99.90
19941;DHT22;10132;50.864;5.176;2024-03-06T09:43:52;11.80;99.90
19941;DHT22;10132;50.864;5.176;2024-03-06T09:45:56;11.80;99.90
19941;DHT22;10132;50.864;5.176;2024-03-06T09:47:58;11.70;99.90
19941;DHT22;10132;50.864;5.176;2024-03-06T09:50:00;11.70;99.90
19941;DHT22;10132;50.864;5.176;2024-03-06T09:52:06;11.70;99.90
19941;DHT22;10132;50.864;5.176;2024-03-06T09:54:09;11.70;99.90
19941;DHT22;10132;50.864;5.176;2024-03-06T09:56:11;11.60;99.90
19941;DHT22;10132;50.864;5.176;2024-03-06T09:58:15;11.70;99.90
19941;DHT22;10132;50.864;5.176;2024-03-06T10:00:17;12.00;99.90
19941;DHT22;10132;50.864;5.176;2024-03-06T10:02:30;12.60;99.90
19941;DHT22;10132;50.864;5.176;2024-03-06T10:04:33;13.30;99.90
19941;DHT22;10132;50.864;5.176;2024-03-06T10:06:38;13.10;99.90
19941;DHT22;10132;50.864;5.176;2024-03-06T10:08:42;12.90;99.90
19941;DHT22;10132;50.864;5.176;2024-03-06T10:10:45;13.10;99.90
19941;DHT22;10132;50.864;5.176;2024-03-06T10:12:49;13.30;99.90
19941;DHT22;10132;50.864;5.176;2024-03-06T10:14:53;13.20;99.90
19941;DHT22;10132;50.864;5.176;2024-03-06T10:16:56;13.00;99.90
19941;DHT22;10132;50.864;5.176;2024-03-06T10:19:15;12.90;99.90
19941;DHT22;10132;50.864;5.176;2024-03-06T10:21:17;12.80;99.90
19941;DHT22;10132;50.864;5.176;2024-03-06T10:23:32;12.80;99.90
19941;DHT22;10132;50.864;5.176;2024-03-06T10:25:35;12.80;99.90
19941;DHT22;10132;50.864;5.176;2024-03-06T10:27:36;12.80;99.90
19941;DHT22;10132;50.864;5.176;2024-03-06T10:29:38;12.90;99.90
19941;DHT22;10132;50.864;5.176;2024-03-06T10:31:43;13.10;99.90
19941;DHT22;10132;50.864;5.176;2024-03-06T10:33:48;13.10;99.90
19941;DHT22;10132;50.864;5.176;2024-03-06T10:35:50;13.00;99.90
19941;DHT22;10132;50.864;5.176;2024-03-06T10:37:54;13.20;99.90
19941;DHT22;10132;50.864;5.176;2024-03-06T10:39:58;13.40;99.90
19941;DHT22;10132;50.864;5.176;2024-03-06T10:42:07;13.40;99.90
19941;DHT22;10132;50.864;5.176;2024-03-06T10:44:11;13.30;99.90
19941;DHT22;10132;50.864;5.176;2024-03-06T10:46:16;13.30;99.90
19941;DHT22;10132;50.864;5.176;2024-03-06T10:48:20;13.30;99.90
19941;DHT22;10132;50.864;5.176;2024-03-06T10:50:22;13.30;99.90
19941;DHT22;10132;50.864;5.176;2024-03-06T10:52:24;13.40;99.90
19941;DHT22;10132;50.864;5.176;2024-03-06T10:54:28;13.50;99.90
19941;DHT22;10132;50.864;5.176;2024-03-06T10:56:31;13.70;99.90
19941;DHT22;10132;50.864;5.176;2024-03-06T10:58:33;13.60;99.90
19941;DHT22;10132;50.864;5.176;2024-03-06T11:00:37;13.80;99.90
19941;DHT22;10132;50.864;5.176;2024-03-06T11:02:39;14.00;99.90
19941;DHT22;10132;50.864;5.176;2024-03-06T11:04:46;14.10;99.90
19941;DHT22;10132;50.864;5.176;2024-03-06T11:06:48;14.00;99.90
19941;DHT22;10132;50.864;5.176;2024-03-06T11:08:50;14.00;99.90
19941;DHT22;10132;50.864;5.176;2024-03-06T11:10:51;13.90;99.90
19941;DHT22;10132;50.864;5.176;2024-03-06T11:12:53;13.60;99.90
19941;DHT22;10132;50.864;5.176;2024-03-06T11:14:55;13.60;99.90
19941;DHT22;10132;50.864;5.176;2024-03-06T11:17:02;13.70;99.90
19941;DHT22;10132;50.864;5.176;2024-03-06T11:19:05;14.00;99.90
19941;DHT22;10132;50.864;5.176;2024-03-06T11:21:32;14.70;99.90
19941;DHT22;10132;50.864;5.176;2024-03-06T11:23:34;14.90;99.90
19941;DHT22;10132;50.864;5.176;2024-03-06T11:25:55;14.20;99.90
19941;DHT22;10132;50.864;5.176;2024-03-06T11:28:05;14.20;99.90
19941;DHT22;10132;50.864;5.176;2024-03-06T11:30:08;14.30;99.90
19941;DHT22;10132;50.864;5.176;2024-03-06T11:32:14;14.40;99.90
19941;DHT22;10132;50.864;5.176;2024-03-06T11:34:16;14.40;99.90
19941;DHT22;10132;50.864;5.176;2024-03-06T11:36:19;14.30;99.90
19941;DHT22;10132;50.864;5.176;2024-03-06T11:38:23;14.20;99.90
19941;DHT22;10132;50.864;5.176;2024-03-06T11:40:26;14.30;99.90
19941;DHT22;10132;50.864;5.176;2024-03-06T11:42:37;14.40;99.90
19941;DHT22;10132;50.864;5.176;2024-03-06T11:44:52;14.10;99.90
19941;DHT22;10132;50.864;5.176;2024-03-06T11:46:59;13.80;99.90
19941;DHT22;10132;50.864;5.176;2024-03-06T11:49:01;13.50;99.90
19941;DHT22;10132;50.864;5.176;2024-03-06T11:51:06;13.30;99.90
19941;DHT22;10132;50.864;5.176;2024-03-06T11:53:07;13.20;99.90
19941;DHT22;10132;50.864;5.176;2024-03-06T11:55:10;13.20;99.90
19941;DHT22;10132;50.864;5.176;2024-03-06T11:57:12;13.20;99.90
19941;DHT22;10132;50.864;5.176;2024-03-06T11:59:16;13.30;99.90
19941;DHT22;10132;50.864;5.176;2024-03-06T12:01:19;13.40;99.90
19941;DHT22;10132;50.864;5.176;2024-03-06T12:03:22;13.50;99.90
19941;DHT22;10132;50.864;5.176;2024-03-06T12:05:25;13.50;99.90
19941;DHT22;10132;50.864;5.176;2024-03-06T12:07:28;13.40;99.90
19941;DHT22;10132;50.864;5.176;2024-03-06T12:09:30;13.40;99.90
19941;DHT22;10132;50.864;5.176;2024-03-06T12:11:36;13.60;99.90
19941;DHT22;10132;50.864;5.176;2024-03-06T12:13:38;13.80;99.90
19941;DHT22;10132;50.864;5.176;2024-03-06T12:15:42;13.70;99.90
19941;DHT22;10132;50.864;5.176;2024-03-06T12:17:44;13.60;99.90
19941;DHT22;10132;50.864;5.176;2024-03-06T12:19:48;13.70;99.90
19941;DHT22;10132;50.864;5.176;2024-03-06T12:21:51;14.00;99.90
19941;DHT22;10132;50.864;5.176;2024-03-06T12:24:02;14.00;99.90
19941;DHT22;10132;50.864;5.176;2024-03-06T12:26:05;13.90;99.90
19941;DHT22;10132;50.864;5.176;2024-03-06T12:28:10;13.90;99.90
19941;DHT22;10132;50.864;5.176;2024-03-06T12:30:15;14.00;99.90
19941;DHT22;10132;50.864;5.176;2024-03-06T12:32:18;14.10;99.90
19941;DHT22;10132;50.864;5.176;2024-03-06T12:34:20;14.10;99.90
19941;DHT22;10132;50.864;5.176;2024-03-06T12:36:25;14.00;99.90
19941;DHT22;10132;50.864;5.176;2024-03-06T12:38:28;13.80;99.90
19941;DHT22;10132;50.864;5.176;2024-03-06T12:40:30;13.80;99.90
19941;DHT22;10132;50.864;5.176;2024-03-06T12:42:33;13.90;99.90
19941;DHT22;10132;50.864;5.176;2024-03-06T12:44:36;14.20;99.90
19941;DHT22;10132;50.864;5.176;2024-03-06T12:46:38;14.40;99.90
19941;DHT22;10132;50.864;5.176;2024-03-06T12:48:40;14.30;99.90
19941;DHT22;10132;50.864;5.176;2024-03-06T12:50:42;14.50;99.90
19941;DHT22;10132;50.864;5.176;2024-03-06T12:52:44;14.60;99.90
19941;DHT22;10132;50.864;5.176;2024-03-06T12:54:46;14.60;99.90
19941;DHT22;10132;50.864;5.176;2024-03-06T12:56:50;14.60;99.90
19941;DHT22;10132;50.864;5.176;2024-03-06T12:58:52;14.50;99.90
19941;DHT22;10132;50.864;5.176;2024-03-06T13:00:55;14.30;99.90
19941;DHT22;10132;50.864;5.176;2024-03-06T13:02:58;14.30;99.90
19941;DHT22;10132;50.864;5.176;2024-03-06T13:05:00;14.40;99.90